createdAt,value
2017-10-14T00:01:11.680Z,15.46
2017-10-14T00:03:39.110Z,15.35
2017-10-14T00:06:06.607Z,15.28
2017-10-14T00:08:34.014Z,15.26
2017-10-14T00:11:01.477Z,15.17
2017-10-14T00:13:28.990Z,15.16
2017-10-14T00:15:56.413Z,15.14
2017-10-14T00:18:23.813Z,15.08
2017-10-14T00:20:51.251Z,15.02
2017-10-14T00:23:18.697Z,15.03
2017-10-14T00:25:46.170Z,15.06
2017-10-14T00:28:13.574Z,15.05
2017-10-14T00:30:41.016Z,15.02
2017-10-14T00:33:08.423Z,15.15
2017-10-14T00:35:35.826Z,15.27
2017-10-14T00:38:03.248Z,15.29
2017-10-14T00:40:30.658Z,15.40
2017-10-14T00:42:58.077Z,15.42
2017-10-14T00:45:25.484Z,15.39
2017-10-14T00:47:52.942Z,15.40
2017-10-14T00:50:20.417Z,15.27
2017-10-14T00:52:47.837Z,15.17
2017-10-14T00:55:15.245Z,15.35
2017-10-14T00:57:42.649Z,15.34
2017-10-14T01:00:10.056Z,15.27
2017-10-14T01:02:37.462Z,15.22
2017-10-14T01:05:05.182Z,15.30
2017-10-14T01:07:32.608Z,15.39
2017-10-14T01:10:00.009Z,15.36
2017-10-14T01:12:27.425Z,15.32
2017-10-14T01:14:54.842Z,15.27
2017-10-14T01:17:22.272Z,15.26
2017-10-14T01:19:49.690Z,15.24
2017-10-14T01:22:17.106Z,15.22
2017-10-14T01:24:44.514Z,15.08
2017-10-14T01:27:11.930Z,14.97
2017-10-14T01:29:39.336Z,15.00
2017-10-14T01:32:06.760Z,14.96
2017-10-14T01:34:34.170Z,14.95
2017-10-14T01:37:01.575Z,15.04
2017-10-14T01:39:28.998Z,14.96
2017-10-14T01:41:56.411Z,14.97
2017-10-14T01:44:23.827Z,14.97
2017-10-14T01:46:51.249Z,14.97
2017-10-14T01:49:18.662Z,15.02
2017-10-14T01:51:46.066Z,15.10
2017-10-14T01:54:13.471Z,15.09
2017-10-14T01:56:40.892Z,15.08
2017-10-14T01:59:08.301Z,14.96
2017-10-14T02:01:35.732Z,15.00
2017-10-14T02:04:03.147Z,15.02
2017-10-14T02:06:30.570Z,14.89
2017-10-14T02:08:57.979Z,14.83
2017-10-14T02:11:25.675Z,14.83
2017-10-14T02:13:53.107Z,14.77
2017-10-14T02:16:20.517Z,14.71
2017-10-14T02:18:47.933Z,14.65
2017-10-14T02:21:15.339Z,14.61
2017-10-14T02:23:42.763Z,14.58
2017-10-14T02:26:10.164Z,14.55
2017-10-14T02:28:37.569Z,14.52
2017-10-14T02:31:04.986Z,14.49
2017-10-14T02:33:32.399Z,14.45
2017-10-14T02:35:59.828Z,14.39
2017-10-14T02:38:27.240Z,14.36
2017-10-14T02:40:54.669Z,14.24
2017-10-14T02:43:22.076Z,14.17
2017-10-14T02:45:49.483Z,14.16
2017-10-14T02:48:16.919Z,14.11
2017-10-14T02:50:44.329Z,14.15
2017-10-14T02:53:11.860Z,14.15
2017-10-14T02:55:39.315Z,14.08
2017-10-14T02:58:06.769Z,14.02
2017-10-14T03:00:34.174Z,13.96
2017-10-14T03:03:01.592Z,14.03
2017-10-14T03:05:29.002Z,13.96
2017-10-14T03:07:56.412Z,14.05
2017-10-14T03:10:23.828Z,14.12
2017-10-14T03:12:51.234Z,14.07
2017-10-14T03:15:18.679Z,13.96
2017-10-14T03:17:46.087Z,13.91
2017-10-14T03:20:13.499Z,13.88
2017-10-14T03:22:40.929Z,13.87
2017-10-14T03:25:08.329Z,13.85
2017-10-14T03:27:35.756Z,13.85
2017-10-14T03:30:03.186Z,13.86
2017-10-14T03:32:30.584Z,13.84
2017-10-14T03:34:58.928Z,13.79
2017-10-14T03:37:26.328Z,13.75
2017-10-14T03:39:53.750Z,13.73
2017-10-14T03:42:21.156Z,13.69
2017-10-14T03:44:48.578Z,13.68
2017-10-14T03:47:15.990Z,13.68
2017-10-14T03:49:43.396Z,13.67
2017-10-14T03:52:10.800Z,13.67
2017-10-14T03:54:38.219Z,13.67
2017-10-14T03:57:05.677Z,13.67
2017-10-14T03:59:33.074Z,13.64
2017-10-14T04:02:00.487Z,13.60
2017-10-14T04:04:27.906Z,13.57
2017-10-14T04:06:55.314Z,13.54
2017-10-14T04:09:22.833Z,13.53
2017-10-14T04:11:50.243Z,13.51
2017-10-14T04:14:17.931Z,13.49
2017-10-14T04:16:45.334Z,13.48
2017-10-14T04:19:12.744Z,13.46
2017-10-14T04:21:40.181Z,13.43
2017-10-14T04:24:07.592Z,13.42
2017-10-14T04:26:35.017Z,13.42
2017-10-14T04:29:02.439Z,13.40
2017-10-14T04:31:29.853Z,13.40
2017-10-14T04:33:57.290Z,13.40
2017-10-14T04:36:24.720Z,13.39
2017-10-14T04:38:52.131Z,13.39
2017-10-14T04:41:19.545Z,13.38
2017-10-14T04:43:46.982Z,13.38
2017-10-14T04:46:14.413Z,13.37
2017-10-14T04:48:41.846Z,13.35
2017-10-14T04:51:09.265Z,13.33
2017-10-14T04:53:36.666Z,13.33
2017-10-14T04:56:04.109Z,13.30
2017-10-14T04:58:31.516Z,13.24
2017-10-14T05:00:58.933Z,13.25
2017-10-14T05:03:26.355Z,13.24
2017-10-14T05:05:53.771Z,13.29
2017-10-14T05:08:21.208Z,13.30
2017-10-14T05:10:48.615Z,13.28
2017-10-14T05:13:16.424Z,13.25
2017-10-14T05:15:43.828Z,13.22
2017-10-14T05:18:11.265Z,13.26
2017-10-14T05:20:38.767Z,13.21
2017-10-14T05:23:06.192Z,13.19
2017-10-14T05:25:33.612Z,13.27
2017-10-14T05:28:01.029Z,13.34
2017-10-14T05:30:28.466Z,13.28
2017-10-14T05:32:55.877Z,13.29
2017-10-14T05:35:23.282Z,13.32
2017-10-14T05:37:50.720Z,13.24
2017-10-14T05:40:18.134Z,13.16
2017-10-14T05:42:45.566Z,13.20
2017-10-14T05:45:12.978Z,13.21
2017-10-14T05:47:40.699Z,13.23
2017-10-14T05:50:08.130Z,13.18
2017-10-14T05:52:35.531Z,13.15
2017-10-14T05:55:02.972Z,13.17
2017-10-14T05:57:30.380Z,13.17
2017-10-14T05:59:57.824Z,13.24
2017-10-14T06:02:25.241Z,13.29
2017-10-14T06:04:52.661Z,13.46
2017-10-14T06:07:20.070Z,13.59
2017-10-14T06:09:47.812Z,13.61
2017-10-14T06:12:15.229Z,13.57
2017-10-14T06:14:42.645Z,13.73
2017-10-14T06:17:10.171Z,13.81
2017-10-14T06:19:37.587Z,13.95
2017-10-14T06:22:05.009Z,14.09
2017-10-14T06:24:32.693Z,14.10
2017-10-14T06:27:00.134Z,14.02
2017-10-14T06:29:27.539Z,13.98
2017-10-14T06:31:54.956Z,13.96
2017-10-14T06:34:22.380Z,13.92
2017-10-14T06:36:49.783Z,13.89
2017-10-14T06:39:17.200Z,13.88
2017-10-14T06:41:44.655Z,13.86
2017-10-14T06:44:12.068Z,13.84
2017-10-14T06:46:39.516Z,13.82
2017-10-14T06:49:06.925Z,13.82
2017-10-14T06:51:34.342Z,13.77
2017-10-14T06:54:01.760Z,13.75
2017-10-14T06:56:29.169Z,13.73
2017-10-14T06:58:56.647Z,13.72
2017-10-14T07:01:24.052Z,13.71
2017-10-14T07:03:51.463Z,13.70
2017-10-14T07:06:18.884Z,13.71
2017-10-14T07:08:46.290Z,13.71
2017-10-14T07:11:13.700Z,13.72
2017-10-14T07:13:41.487Z,13.70
2017-10-14T07:16:08.905Z,13.70
2017-10-14T07:18:36.305Z,13.73
2017-10-14T07:21:03.722Z,13.77
2017-10-14T07:23:31.132Z,13.78
2017-10-14T07:25:58.564Z,13.79
2017-10-14T07:28:25.997Z,13.81
2017-10-14T07:30:53.433Z,13.82
2017-10-14T07:33:20.854Z,13.84
2017-10-14T07:35:48.258Z,13.89
2017-10-14T07:38:15.681Z,13.93
2017-10-14T07:40:43.113Z,14.01
2017-10-14T07:43:10.528Z,14.06
2017-10-14T07:45:37.944Z,14.13
2017-10-14T07:48:05.417Z,14.20
2017-10-14T07:50:32.830Z,14.47
2017-10-14T07:53:00.249Z,14.66
2017-10-14T07:55:27.677Z,14.57
2017-10-14T07:57:55.120Z,14.60
2017-10-14T08:00:22.538Z,14.62
2017-10-14T08:02:50.642Z,14.67
2017-10-14T08:05:18.078Z,14.67
2017-10-14T08:07:45.516Z,14.71
2017-10-14T08:10:12.957Z,14.79
2017-10-14T08:12:40.429Z,14.82
2017-10-14T08:15:07.850Z,14.89
2017-10-14T08:17:35.273Z,14.97
2017-10-14T08:20:02.696Z,15.03
2017-10-14T08:22:30.127Z,15.09
2017-10-14T08:24:57.548Z,15.15
2017-10-14T08:27:24.990Z,15.19
2017-10-14T08:29:52.429Z,15.24
2017-10-14T08:32:19.849Z,15.30
2017-10-14T08:34:47.264Z,15.40
2017-10-14T08:37:14.725Z,15.48
2017-10-14T08:39:42.197Z,15.52
2017-10-14T08:42:09.614Z,15.53
2017-10-14T08:44:37.027Z,15.58
2017-10-14T08:47:04.478Z,15.59
2017-10-14T08:49:31.881Z,15.60
2017-10-14T08:51:59.751Z,15.63
2017-10-14T08:54:27.198Z,15.66
2017-10-14T08:56:54.601Z,15.67
2017-10-14T08:59:22.040Z,15.72
2017-10-14T09:01:49.446Z,15.79
2017-10-14T09:04:17.414Z,15.90
2017-10-14T09:06:44.823Z,15.94
2017-10-14T09:09:12.262Z,15.99
2017-10-14T09:11:39.678Z,16.05
2017-10-14T09:14:07.091Z,16.11
2017-10-14T09:16:34.516Z,16.17
2017-10-14T09:19:01.907Z,16.22
2017-10-14T09:21:30.050Z,16.23
2017-10-14T09:23:57.453Z,16.32
2017-10-14T09:26:24.888Z,16.43
2017-10-14T09:28:52.316Z,16.47
2017-10-14T09:31:20.742Z,16.47
2017-10-14T09:33:48.166Z,16.50
2017-10-14T09:36:15.583Z,16.53
2017-10-14T09:38:42.988Z,16.59
2017-10-14T09:41:10.495Z,16.75
2017-10-14T09:43:37.913Z,16.71
2017-10-14T09:46:05.826Z,16.77
2017-10-14T09:48:35.214Z,16.84
2017-10-14T09:51:03.352Z,16.90
2017-10-14T09:53:30.755Z,16.99
2017-10-14T09:55:58.168Z,17.06
2017-10-14T09:58:25.598Z,17.21
2017-10-14T10:00:53.014Z,17.36
2017-10-14T10:03:21.651Z,17.57
2017-10-14T10:05:49.046Z,17.66
2017-10-14T10:08:16.453Z,17.88
2017-10-14T10:10:43.876Z,18.12
2017-10-14T10:13:11.281Z,18.38
2017-10-14T10:15:39.051Z,18.60
2017-10-14T10:18:06.453Z,18.92
2017-10-14T10:20:33.852Z,17.37
2017-10-14T10:23:01.279Z,19.99
2017-10-14T10:25:28.683Z,20.37
2017-10-14T10:27:56.136Z,21.01
2017-10-14T10:30:23.552Z,21.48
2017-10-14T10:32:50.971Z,21.86
2017-10-14T10:35:18.389Z,22.18
2017-10-14T10:37:45.805Z,-142.52
2017-10-14T10:40:13.231Z,-142.52
2017-10-14T10:42:40.702Z,-142.52
2017-10-14T10:45:08.166Z,-142.52
2017-10-14T10:47:35.573Z,-142.52
2017-10-14T10:50:03.038Z,-142.52
2017-10-14T10:52:30.472Z,-142.52
2017-10-14T10:54:57.885Z,-142.52
2017-10-14T10:57:25.589Z,23.04
2017-10-14T10:59:52.986Z,22.71
2017-10-14T11:02:20.394Z,22.81
2017-10-14T11:04:47.825Z,22.92
2017-10-14T11:07:15.241Z,22.87
2017-10-14T11:09:42.670Z,22.58
2017-10-14T11:12:10.092Z,22.65
2017-10-14T11:14:37.531Z,23.13
2017-10-14T11:17:04.942Z,23.45
2017-10-14T11:19:32.348Z,24.03
2017-10-14T11:21:59.774Z,24.48
2017-10-14T11:24:27.191Z,24.79
2017-10-14T11:26:54.783Z,25.11
2017-10-14T11:29:22.201Z,25.39
2017-10-14T11:31:50.015Z,25.34
2017-10-14T11:34:17.468Z,-142.52
2017-10-14T11:36:44.879Z,-142.52
2017-10-14T11:39:12.333Z,26.10
2017-10-14T11:41:39.742Z,26.37
2017-10-14T11:44:07.150Z,26.66
2017-10-14T11:46:34.553Z,26.81
2017-10-14T11:49:01.974Z,26.88
2017-10-14T11:51:29.401Z,26.39
2017-10-14T11:53:56.893Z,26.51
2017-10-14T11:56:24.327Z,26.88
2017-10-14T11:58:51.729Z,26.30
2017-10-14T12:01:19.182Z,-142.52
2017-10-14T12:03:46.633Z,-142.52
2017-10-14T12:06:14.134Z,-142.52
2017-10-14T12:08:41.555Z,-142.52
2017-10-14T12:11:08.997Z,-142.52
2017-10-14T12:13:36.417Z,-142.52
2017-10-14T12:16:03.835Z,-142.52
2017-10-14T12:18:31.290Z,-142.52
2017-10-14T12:20:58.711Z,-142.52
2017-10-14T12:23:26.154Z,-142.52
2017-10-14T12:25:53.592Z,-142.52
2017-10-14T12:28:21.037Z,-142.52
2017-10-14T12:30:48.459Z,-142.52
2017-10-14T12:33:15.932Z,-142.52
2017-10-14T12:35:43.461Z,-142.52
2017-10-14T12:38:10.923Z,-142.52
2017-10-14T12:40:38.370Z,-142.52
2017-10-14T12:43:05.841Z,-142.52
2017-10-14T12:45:33.654Z,-142.52
2017-10-14T12:48:01.073Z,-142.52
2017-10-14T12:50:28.506Z,-142.52
2017-10-14T12:52:55.934Z,-142.52
2017-10-14T12:55:23.346Z,28.42
2017-10-14T12:57:50.822Z,28.25
2017-10-14T13:00:18.229Z,28.02
2017-10-14T13:02:45.660Z,27.38
2017-10-14T13:05:13.086Z,27.58
2017-10-14T13:07:40.512Z,27.89
2017-10-14T13:10:07.976Z,28.24
2017-10-14T13:12:35.405Z,28.34
2017-10-14T13:15:03.207Z,28.57
2017-10-14T13:17:30.604Z,28.87
2017-10-14T13:19:58.022Z,29.14
2017-10-14T13:22:25.453Z,29.34
2017-10-14T13:24:52.844Z,29.54
2017-10-14T13:27:20.270Z,29.66
2017-10-14T13:29:47.678Z,29.45
2017-10-14T13:32:15.098Z,28.49
2017-10-14T13:34:42.595Z,28.62
2017-10-14T13:37:10.015Z,28.32
2017-10-14T13:39:37.466Z,28.40
2017-10-14T13:42:04.877Z,28.52
2017-10-14T13:44:32.287Z,28.50
2017-10-14T13:46:59.698Z,28.71
2017-10-14T13:49:27.102Z,28.93
2017-10-14T13:51:54.526Z,29.04
2017-10-14T13:54:21.933Z,29.05
2017-10-14T13:56:49.359Z,28.97
2017-10-14T13:59:16.756Z,28.87
2017-10-14T14:01:44.177Z,28.69
2017-10-14T14:04:11.598Z,28.55
2017-10-14T14:06:39.006Z,28.43
2017-10-14T14:09:06.424Z,28.04
2017-10-14T14:11:33.824Z,27.83
2017-10-14T14:14:01.263Z,27.39
2017-10-14T14:16:28.647Z,27.01
2017-10-14T14:18:56.159Z,26.56
2017-10-14T14:21:23.605Z,26.15
2017-10-14T14:23:51.019Z,26.00
2017-10-14T14:26:18.466Z,25.84
2017-10-14T14:28:45.872Z,25.51
2017-10-14T14:31:13.692Z,25.25
2017-10-14T14:33:41.123Z,24.98
2017-10-14T14:36:08.525Z,24.71
2017-10-14T14:38:35.941Z,24.46
2017-10-14T14:41:03.430Z,24.21
2017-10-14T14:43:30.850Z,23.93
2017-10-14T14:45:58.286Z,23.69
2017-10-14T14:48:25.698Z,23.50
2017-10-14T14:50:53.120Z,23.31
2017-10-14T14:53:20.537Z,23.17
2017-10-14T14:55:47.940Z,23.01
2017-10-14T14:58:15.411Z,22.81
2017-10-14T15:00:42.841Z,22.64
2017-10-14T15:03:10.253Z,22.53
2017-10-14T15:05:37.970Z,22.42
2017-10-14T15:08:05.389Z,22.33
2017-10-14T15:10:32.853Z,22.21
2017-10-14T15:13:00.331Z,22.11
2017-10-14T15:15:27.741Z,22.04
2017-10-14T15:17:55.161Z,21.94
2017-10-14T15:20:22.585Z,21.85
2017-10-14T15:22:50.031Z,21.74
2017-10-14T15:25:17.429Z,21.64
2017-10-14T15:27:44.895Z,21.57
2017-10-14T15:30:12.393Z,21.50
2017-10-14T15:32:39.829Z,21.41
2017-10-14T15:35:07.256Z,21.34
2017-10-14T15:37:34.650Z,21.29
2017-10-14T15:40:02.071Z,21.24
2017-10-14T15:42:29.491Z,21.14
2017-10-14T15:44:56.896Z,21.08
2017-10-14T15:47:24.347Z,21.00
2017-10-14T15:49:51.760Z,20.94
2017-10-14T15:52:19.160Z,20.87
2017-10-14T15:54:46.646Z,20.80
2017-10-14T15:57:14.086Z,20.74
2017-10-14T15:59:41.513Z,20.67
2017-10-14T16:02:08.930Z,20.62
2017-10-14T16:04:36.335Z,20.59
2017-10-14T16:07:03.754Z,20.53
2017-10-14T16:09:31.173Z,20.48
2017-10-14T16:11:58.599Z,20.41
2017-10-14T16:14:26.038Z,20.34
2017-10-14T16:16:53.495Z,20.28
2017-10-14T16:19:20.925Z,20.24
2017-10-14T16:21:48.324Z,20.16
2017-10-14T16:24:15.764Z,20.11
2017-10-14T16:26:43.162Z,20.05
2017-10-14T16:29:10.590Z,19.97
2017-10-14T16:31:37.988Z,19.89
2017-10-14T16:34:05.398Z,19.83
2017-10-14T16:36:32.823Z,19.76
2017-10-14T16:39:00.296Z,19.69
2017-10-14T16:41:27.697Z,19.66
2017-10-14T16:43:55.110Z,19.60
2017-10-14T16:46:22.564Z,19.55
2017-10-14T16:48:49.972Z,19.49
2017-10-14T16:51:17.399Z,19.44
2017-10-14T16:53:44.813Z,19.39
2017-10-14T16:56:12.230Z,19.32
2017-10-14T16:58:39.682Z,19.27
2017-10-14T17:01:07.120Z,19.23
2017-10-14T17:03:34.571Z,19.18
2017-10-14T17:06:02.000Z,19.13
2017-10-14T17:08:29.446Z,19.07
2017-10-14T17:10:56.849Z,19.01
2017-10-14T17:13:24.261Z,18.97
2017-10-14T17:15:51.678Z,18.92
2017-10-14T17:18:19.086Z,18.86
2017-10-14T17:20:46.555Z,18.81
2017-10-14T17:23:13.958Z,18.78
2017-10-14T17:25:41.415Z,18.74
2017-10-14T17:28:08.834Z,18.71
2017-10-14T17:30:36.297Z,18.67
2017-10-14T17:33:03.717Z,18.65
2017-10-14T17:35:31.153Z,18.70
2017-10-14T17:37:58.568Z,18.69
2017-10-14T17:40:25.986Z,18.61
2017-10-14T17:42:53.400Z,18.58
2017-10-14T17:45:20.849Z,18.55
2017-10-14T17:47:48.298Z,18.53
2017-10-14T17:50:15.747Z,18.51
2017-10-14T17:52:43.147Z,18.45
2017-10-14T17:55:10.553Z,18.43
2017-10-14T17:57:37.954Z,18.40
2017-10-14T18:00:05.404Z,18.36
2017-10-14T18:02:32.805Z,18.31
2017-10-14T18:05:00.241Z,18.30
2017-10-14T18:07:27.644Z,18.27
2017-10-14T18:09:55.074Z,18.27
2017-10-14T18:12:22.508Z,18.23
2017-10-14T18:14:49.930Z,18.25
2017-10-14T18:17:17.393Z,18.23
2017-10-14T18:19:44.827Z,18.21
2017-10-14T18:22:12.266Z,18.21
2017-10-14T18:24:39.674Z,18.19
2017-10-14T18:27:07.109Z,18.14
2017-10-14T18:29:34.528Z,18.09
2017-10-14T18:32:02.000Z,18.05
2017-10-14T18:34:29.420Z,18.03
2017-10-14T18:36:56.854Z,18.04
2017-10-14T18:39:34.191Z,18.04
2017-10-14T18:42:01.615Z,18.03
2017-10-14T18:44:29.048Z,18.03
2017-10-14T18:46:56.558Z,18.03
2017-10-14T18:49:24.004Z,18.03
2017-10-14T18:51:51.421Z,18.03
2017-10-14T18:54:18.868Z,18.03
2017-10-14T18:56:46.322Z,18.07
2017-10-14T18:59:13.769Z,18.01
2017-10-14T19:01:41.230Z,17.86
2017-10-14T19:04:08.706Z,17.77
2017-10-14T19:06:36.110Z,17.71
2017-10-14T19:09:03.569Z,17.58
2017-10-14T19:11:30.997Z,17.52
2017-10-14T19:13:58.436Z,17.47
2017-10-14T19:16:25.855Z,17.38
2017-10-14T19:18:53.300Z,17.26
2017-10-14T19:21:20.752Z,17.17
2017-10-14T19:23:48.319Z,17.08
2017-10-14T19:26:15.753Z,17.01
2017-10-14T19:28:43.158Z,16.96
2017-10-14T19:31:10.900Z,16.93
2017-10-14T19:33:38.376Z,16.90
2017-10-14T19:36:05.930Z,16.87
2017-10-14T19:38:33.370Z,16.86
2017-10-14T19:41:00.810Z,16.87
2017-10-14T19:43:28.308Z,16.89
2017-10-14T19:45:56.697Z,16.92
2017-10-14T19:48:24.549Z,16.95
2017-10-14T19:50:51.978Z,16.97
2017-10-14T19:53:19.378Z,16.98
2017-10-14T19:55:46.818Z,17.01
2017-10-14T19:58:14.252Z,17.02
2017-10-14T20:00:41.765Z,17.03
2017-10-14T20:03:09.220Z,17.00
2017-10-14T20:05:36.650Z,16.99
2017-10-14T20:08:04.090Z,16.98
2017-10-14T20:10:31.519Z,16.96
2017-10-14T20:12:58.942Z,16.94
2017-10-14T20:15:26.377Z,16.94
2017-10-14T20:17:53.809Z,16.93
2017-10-14T20:20:21.227Z,16.93
2017-10-14T20:22:48.685Z,16.94
2017-10-14T20:25:16.110Z,16.93
2017-10-14T20:27:43.542Z,16.92
2017-10-14T20:30:10.960Z,16.92
2017-10-14T20:32:38.384Z,16.93
2017-10-14T20:35:05.800Z,16.94
2017-10-14T20:37:33.208Z,16.97
2017-10-14T20:40:00.631Z,16.96
2017-10-14T20:42:28.066Z,16.96
2017-10-14T20:44:55.474Z,16.96
2017-10-14T20:47:22.889Z,16.95
2017-10-14T20:49:50.336Z,16.96
2017-10-14T20:52:17.809Z,16.94
2017-10-14T20:54:45.305Z,16.92
2017-10-14T20:57:12.685Z,16.90
2017-10-14T20:59:40.129Z,16.90
2017-10-14T21:02:07.549Z,16.89
2017-10-14T21:04:34.976Z,16.90
2017-10-14T21:07:02.384Z,16.92
2017-10-14T21:09:29.820Z,16.92
2017-10-14T21:11:57.271Z,16.94
2017-10-14T21:14:24.717Z,16.95
2017-10-14T21:16:52.139Z,16.97
2017-10-14T21:19:19.670Z,17.02
2017-10-14T21:21:47.106Z,16.97
2017-10-14T21:24:14.520Z,16.85
2017-10-14T21:26:42.099Z,16.79
2017-10-14T21:29:09.566Z,16.70
2017-10-14T21:31:37.443Z,16.63
2017-10-14T21:34:04.858Z,16.58
2017-10-14T21:36:32.631Z,16.53
2017-10-14T21:39:00.036Z,16.43
2017-10-14T21:41:27.445Z,16.36
2017-10-14T21:43:54.858Z,16.33
2017-10-14T21:46:22.263Z,16.30
2017-10-14T21:48:49.752Z,16.25
2017-10-14T21:51:17.183Z,16.22
2017-10-14T21:53:44.606Z,16.21
2017-10-14T21:56:12.297Z,16.17
2017-10-14T21:58:39.805Z,16.17
2017-10-14T22:01:07.232Z,16.16
2017-10-14T22:03:34.642Z,16.15
2017-10-14T22:06:02.079Z,16.12
2017-10-14T22:08:29.495Z,16.09
2017-10-14T22:10:56.929Z,16.10
2017-10-14T22:13:24.329Z,16.10
2017-10-14T22:15:52.050Z,16.09
2017-10-14T22:18:19.455Z,16.09
2017-10-14T22:20:46.895Z,16.10
2017-10-14T22:23:14.315Z,16.10
2017-10-14T22:25:41.727Z,16.12
2017-10-14T22:28:09.140Z,16.13
2017-10-14T22:30:36.553Z,16.12
2017-10-14T22:33:04.005Z,16.12
2017-10-14T22:35:31.405Z,16.14
2017-10-14T22:37:58.807Z,16.13
2017-10-14T22:40:26.222Z,16.08
2017-10-14T22:42:53.637Z,16.02
2017-10-14T22:45:21.074Z,15.97
2017-10-14T22:47:48.473Z,15.89
2017-10-14T22:50:15.909Z,15.87
2017-10-14T22:52:43.310Z,15.81
2017-10-14T22:55:10.720Z,15.75
2017-10-14T22:57:38.134Z,15.73
2017-10-14T23:00:05.540Z,15.71
2017-10-14T23:02:32.953Z,15.69
2017-10-14T23:05:00.368Z,15.70
2017-10-14T23:07:27.770Z,15.72
2017-10-14T23:09:55.185Z,15.74
2017-10-14T23:12:22.593Z,15.78
2017-10-14T23:14:50.013Z,15.81
2017-10-14T23:17:17.410Z,15.85
2017-10-14T23:19:44.902Z,15.88
2017-10-14T23:22:12.312Z,15.90
2017-10-14T23:24:39.773Z,15.92
2017-10-14T23:27:07.179Z,15.92
2017-10-14T23:29:34.579Z,15.93
2017-10-14T23:32:01.994Z,15.93
2017-10-14T23:34:29.395Z,15.93
2017-10-14T23:36:56.810Z,15.94
2017-10-14T23:39:24.212Z,15.93
2017-10-14T23:41:51.629Z,15.94
2017-10-14T23:44:19.049Z,15.92
2017-10-14T23:46:46.442Z,15.90
2017-10-14T23:49:14.195Z,15.87
2017-10-14T23:51:41.592Z,15.85
2017-10-14T23:54:08.990Z,15.85
2017-10-14T23:56:36.401Z,15.83
2017-10-14T23:59:03.849Z,15.82
